Terminal Aerodrome Forecast
Issued by NWS

Home | Current Version | Previous Version | Graphics & Text | Print | Product List | Glossary On
Versions: 1 2 3 4 5 6 7 8 9 10 11 12 13 14 15 16 17 18 19 20 21
000
FTUS43 KICT 282338
TAFRSL
TAF
KRSL 282338Z 2900/2924 17014G21KT P6SM SCT025 BKN120
     FM290200 15008KT P6SM VCTS SCT020CB BKN035
      TEMPO 2902/2905 2SM -TSRA
     FM290500 16010KT P6SM VCTS BKN020CB OVC080
     FM291000 21010KT P6SM VCTS BKN012CB OVC060
     FM291900 23005KT P6SM BKN050=

USA.gov is the U.S. government's official web portal to all federal, state and local government web resources and services.